createdAt,value
2018-03-19T00:00:42.794Z,18.27
2018-03-19T00:03:11.253Z,14.60
2018-03-19T00:05:39.318Z,17.60
2018-03-19T00:08:07.434Z,17.63
2018-03-19T00:10:35.601Z,18.40
2018-03-19T00:13:03.784Z,14.47
2018-03-19T00:15:31.845Z,17.10
2018-03-19T00:17:59.935Z,15.67
2018-03-19T00:20:28.015Z,13.37
2018-03-19T00:22:56.100Z,15.60
2018-03-19T00:25:24.573Z,16.40
2018-03-19T00:27:52.688Z,16.47
2018-03-19T00:30:20.733Z,18.30
2018-03-19T00:32:48.910Z,15.80
2018-03-19T00:35:16.978Z,16.17
2018-03-19T00:37:45.128Z,16.30
2018-03-19T00:40:13.177Z,15.80
2018-03-19T00:42:42.038Z,14.57
2018-03-19T00:45:10.106Z,11.87
2018-03-19T00:47:38.290Z,15.57
2018-03-19T00:50:06.370Z,16.50
2018-03-19T00:52:34.549Z,16.73
2018-03-19T00:55:02.623Z,14.60
2018-03-19T00:57:31.022Z,15.68
2018-03-19T00:59:59.075Z,13.40
2018-03-19T01:02:27.146Z,18.70
2018-03-19T01:04:55.209Z,14.43
2018-03-19T01:07:23.306Z,17.20
2018-03-19T01:09:52.318Z,16.92
2018-03-19T01:12:20.482Z,15.30
2018-03-19T01:14:48.568Z,15.30
2018-03-19T01:17:16.738Z,17.80
2018-03-19T01:19:44.801Z,15.30
2018-03-19T01:22:12.882Z,14.48
2018-03-19T01:24:40.947Z,13.87
2018-03-19T01:27:09.050Z,14.43
2018-03-19T01:29:37.118Z,14.53
2018-03-19T01:32:05.222Z,15.00
2018-03-19T01:34:33.291Z,14.00
2018-03-19T01:37:01.378Z,14.00
2018-03-19T01:39:29.531Z,14.85
2018-03-19T01:41:57.702Z,15.30
2018-03-19T01:44:25.762Z,16.37
2018-03-19T01:46:53.870Z,15.77
2018-03-19T01:49:21.944Z,15.37
2018-03-19T01:51:50.216Z,14.13
2018-03-19T01:54:18.284Z,14.27
2018-03-19T01:56:46.350Z,14.70
2018-03-19T01:59:14.440Z,14.70
2018-03-19T02:01:42.522Z,15.25
2018-03-19T02:04:10.698Z,17.50
2018-03-19T02:06:38.767Z,14.10
2018-03-19T02:09:06.835Z,16.30
2018-03-19T02:11:34.908Z,14.50
2018-03-19T02:14:02.993Z,14.27
2018-03-19T02:16:31.066Z,13.57
2018-03-19T02:18:59.161Z,13.80
2018-03-19T02:21:27.313Z,15.87
2018-03-19T02:23:55.938Z,11.68
2018-03-19T02:26:24.106Z,13.80
2018-03-19T02:28:52.397Z,14.77
2018-03-19T02:31:21.234Z,14.47
2018-03-19T02:33:49.302Z,13.53
2018-03-19T02:36:18.141Z,14.57
2018-03-19T02:38:46.216Z,12.80
2018-03-19T02:41:14.274Z,12.85
2018-03-19T02:43:42.390Z,13.50
2018-03-19T02:46:10.548Z,12.87
2018-03-19T02:48:38.734Z,14.27
2018-03-19T02:51:06.802Z,12.70
2018-03-19T02:53:35.092Z,13.40
2018-03-19T02:56:03.160Z,13.67
2018-03-19T02:58:31.235Z,13.73
2018-03-19T03:00:59.321Z,13.80
2018-03-19T03:03:27.395Z,13.18
2018-03-19T03:05:57.217Z,13.42
2018-03-19T03:08:26.413Z,14.50
2018-03-19T03:10:54.474Z,10.80
2018-03-19T03:13:22.547Z,12.63
2018-03-19T03:15:50.642Z,12.83
2018-03-19T03:18:18.827Z,12.67
2018-03-19T03:20:46.896Z,12.07
2018-03-19T03:23:14.981Z,8.53
2018-03-19T03:25:43.055Z,11.40
2018-03-19T03:28:11.129Z,13.57
2018-03-19T03:30:39.198Z,12.40
2018-03-19T03:33:07.378Z,14.13
2018-03-19T03:35:35.449Z,12.90
2018-03-19T03:38:03.522Z,12.90
2018-03-19T03:40:31.585Z,12.50
2018-03-19T03:42:59.691Z,14.17
2018-03-19T03:45:27.866Z,11.60
2018-03-19T03:47:57.076Z,12.02
2018-03-19T03:50:25.166Z,11.77
2018-03-19T03:52:53.274Z,13.80
2018-03-19T03:55:22.167Z,11.53
2018-03-19T03:57:50.250Z,11.87
2018-03-19T04:00:18.313Z,13.60
2018-03-19T04:02:47.274Z,11.47
2018-03-19T04:05:15.446Z,13.50
2018-03-19T04:07:43.514Z,12.57
2018-03-19T04:10:11.595Z,14.48
2018-03-19T04:12:39.679Z,12.50
2018-03-19T04:15:07.742Z,11.20
2018-03-19T04:17:35.827Z,12.30
2018-03-19T04:20:03.906Z,15.00
2018-03-19T04:22:31.982Z,13.10
2018-03-19T04:25:00.070Z,11.43
2018-03-19T04:27:28.142Z,13.13
2018-03-19T04:29:57.362Z,12.40
2018-03-19T04:32:25.421Z,14.13
2018-03-19T04:34:53.491Z,13.30
2018-03-19T04:37:21.670Z,12.32
2018-03-19T04:39:49.726Z,11.90
2018-03-19T04:42:17.882Z,13.90
2018-03-19T04:44:45.938Z,13.93
2018-03-19T04:47:14.881Z,12.60
2018-03-19T04:49:42.947Z,14.90
2018-03-19T04:52:11.282Z,12.97
2018-03-19T04:54:40.150Z,10.80
2018-03-19T04:57:08.326Z,11.10
2018-03-19T04:59:36.402Z,13.70
2018-03-19T05:02:04.466Z,14.67
2018-03-19T05:04:32.614Z,14.50
2018-03-19T05:07:00.666Z,12.97
2018-03-19T05:09:29.505Z,12.40
2018-03-19T05:11:58.714Z,11.35
2018-03-19T05:14:27.925Z,12.90
2018-03-19T05:16:55.994Z,12.17
2018-03-19T05:19:24.087Z,12.03
2018-03-19T05:21:53.141Z,13.07
2018-03-19T05:24:21.197Z,12.83
2018-03-19T05:26:50.146Z,11.47
2018-03-19T05:29:18.219Z,16.53
2018-03-19T05:31:46.299Z,13.93
2018-03-19T05:34:14.782Z,12.63
2018-03-19T05:36:42.861Z,13.20
2018-03-19T05:39:11.050Z,14.67
2018-03-19T05:41:39.143Z,15.20
2018-03-19T05:44:07.209Z,13.27
2018-03-19T05:46:36.206Z,13.55
2018-03-19T05:49:05.060Z,14.05
2018-03-19T05:51:33.127Z,11.85
2018-03-19T05:54:01.237Z,11.93
2018-03-19T05:56:29.318Z,14.70
2018-03-19T05:58:58.621Z,12.73
2018-03-19T06:01:26.763Z,13.63
2018-03-19T06:03:54.842Z,12.80
2018-03-19T06:06:22.910Z,13.23
2018-03-19T06:08:50.995Z,14.60
2018-03-19T06:11:19.070Z,12.93
2018-03-19T06:13:47.159Z,13.87
2018-03-19T06:16:15.222Z,15.27
2018-03-19T06:18:43.298Z,14.33
2018-03-19T06:21:11.357Z,13.52
2018-03-19T06:23:40.222Z,12.93
2018-03-19T06:26:09.054Z,13.77
2018-03-19T06:28:37.259Z,12.60
2018-03-19T06:31:05.356Z,14.20
2018-03-19T06:33:33.469Z,14.77
2018-03-19T06:36:02.344Z,14.60
2018-03-19T06:38:30.410Z,15.23
2018-03-19T06:40:59.700Z,13.57
2018-03-19T06:43:29.664Z,13.60
2018-03-19T06:45:59.617Z,13.23
2018-03-19T06:48:28.813Z,16.00
2018-03-19T06:50:56.920Z,14.27
2018-03-19T06:53:25.098Z,14.95
2018-03-19T06:55:53.288Z,13.87
2018-03-19T06:58:21.365Z,15.23
2018-03-19T07:00:49.433Z,15.77
2018-03-19T07:03:17.520Z,13.67
2018-03-19T07:05:45.575Z,15.87
2018-03-19T07:08:13.646Z,13.90
2018-03-19T07:10:41.737Z,13.20
2018-03-19T07:13:09.912Z,13.30
2018-03-19T07:15:37.986Z,14.00
2018-03-19T07:18:06.059Z,15.27
2018-03-19T07:20:34.178Z,14.43
2018-03-19T07:23:03.033Z,13.25
2018-03-19T07:25:31.156Z,14.63
2018-03-19T07:28:00.112Z,14.07
2018-03-19T07:30:29.294Z,17.12
2018-03-19T07:32:57.386Z,13.35
2018-03-19T07:35:25.454Z,14.80
2018-03-19T07:37:53.559Z,15.20
2018-03-19T07:40:21.721Z,14.17
2018-03-19T07:42:49.787Z,15.90
2018-03-19T07:45:18.510Z,14.53
2018-03-19T07:47:46.683Z,18.17
2018-03-19T07:50:14.845Z,16.40
2018-03-19T07:52:42.927Z,14.43
2018-03-19T07:55:10.999Z,15.83
2018-03-19T07:57:39.073Z,15.80
2018-03-19T08:00:07.148Z,14.70
2018-03-19T08:02:35.206Z,13.20
2018-03-19T08:05:03.275Z,14.75
2018-03-19T08:07:31.352Z,14.33
2018-03-19T08:10:00.653Z,12.65
2018-03-19T08:12:30.470Z,15.20
2018-03-19T08:15:00.286Z,16.23
2018-03-19T08:17:28.396Z,11.37
2018-03-19T08:19:56.475Z,14.70
2018-03-19T08:22:24.654Z,14.47
2018-03-19T08:24:52.731Z,14.02
2018-03-19T08:27:20.903Z,15.75
2018-03-19T08:29:48.986Z,14.80
2018-03-19T08:32:17.051Z,14.90
2018-03-19T08:34:45.120Z,17.80
2018-03-19T08:37:13.210Z,15.13
2018-03-19T08:39:41.325Z,15.97
2018-03-19T08:42:09.469Z,17.10
2018-03-19T08:44:37.639Z,16.27
2018-03-19T08:47:05.717Z,15.93
2018-03-19T08:49:33.890Z,15.57
2018-03-19T08:52:01.954Z,16.33
2018-03-19T08:54:30.857Z,17.17
2018-03-19T08:57:00.072Z,15.20
2018-03-19T08:59:28.246Z,14.40
2018-03-19T09:01:56.322Z,17.53
2018-03-19T09:04:24.402Z,15.23
2018-03-19T09:06:52.486Z,15.83
2018-03-19T09:09:20.802Z,19.07
2018-03-19T09:11:48.941Z,16.50
2018-03-19T09:14:17.162Z,16.65
2018-03-19T09:16:46.050Z,14.87
2018-03-19T09:19:14.906Z,16.53
2018-03-19T09:21:43.036Z,14.37
2018-03-19T09:24:11.160Z,16.60
2018-03-19T09:26:39.228Z,16.60
2018-03-19T09:29:07.470Z,17.53
2018-03-19T09:31:35.720Z,16.35
2018-03-19T09:34:03.976Z,16.50
2018-03-19T09:36:32.043Z,17.80
2018-03-19T09:39:01.610Z,16.04
2018-03-19T09:41:30.772Z,18.46
2018-03-19T09:44:00.784Z,17.75
2018-03-19T09:46:28.848Z,16.97
2018-03-19T09:48:56.941Z,15.15
2018-03-19T09:51:25.255Z,16.47
2018-03-19T09:53:54.110Z,16.60
2018-03-19T09:56:22.244Z,17.90
2018-03-19T09:58:50.371Z,19.33
2018-03-19T10:01:18.550Z,18.30
2018-03-19T10:03:46.743Z,17.90
2018-03-19T10:06:14.842Z,16.05
2018-03-19T10:08:43.686Z,16.47
2018-03-19T10:11:12.319Z,17.55
2018-03-19T10:13:40.467Z,16.33
2018-03-19T10:16:08.876Z,14.37
2018-03-19T10:18:38.486Z,16.17
2018-03-19T10:21:06.562Z,14.93
2018-03-19T10:23:34.763Z,17.30
2018-03-19T10:26:03.674Z,18.90
2018-03-19T10:28:31.783Z,18.00
2018-03-19T10:30:59.946Z,17.13
2018-03-19T10:33:28.026Z,19.53
2018-03-19T10:35:57.126Z,17.70
2018-03-19T10:38:25.261Z,20.13
2018-03-19T10:40:54.110Z,17.60
2018-03-19T10:43:22.196Z,18.37
2018-03-19T10:45:50.687Z,18.13
2018-03-19T10:48:18.729Z,17.50
2018-03-19T10:50:46.955Z,18.67
2018-03-19T10:53:15.248Z,16.40
2018-03-19T10:55:44.738Z,21.40
2018-03-19T10:58:13.610Z,19.77
2018-03-19T11:00:41.682Z,20.87
2018-03-19T11:03:09.740Z,19.00
2018-03-19T11:05:43.384Z,17.83
2018-03-19T11:08:11.922Z,18.70
2018-03-19T11:10:40.001Z,19.50
2018-03-19T11:13:08.053Z,17.97
2018-03-19T11:15:37.006Z,20.25
2018-03-19T11:18:05.090Z,18.67
2018-03-19T11:20:33.334Z,16.57
2018-03-19T11:23:02.001Z,21.42
2018-03-19T11:25:30.125Z,18.30
2018-03-19T11:27:58.190Z,17.35
2018-03-19T11:30:26.261Z,20.50
2018-03-19T11:32:54.355Z,17.77
2018-03-19T11:35:22.606Z,19.27
2018-03-19T11:37:50.665Z,17.67
2018-03-19T11:40:19.510Z,19.07
2018-03-19T11:42:47.570Z,20.53
2018-03-19T11:45:15.651Z,21.10
2018-03-19T11:47:44.014Z,19.03
2018-03-19T11:50:12.122Z,18.17
2018-03-19T11:52:40.198Z,19.70
2018-03-19T11:55:08.258Z,20.95
2018-03-19T11:57:36.322Z,18.50
2018-03-19T12:00:04.493Z,20.70
2018-03-19T12:02:32.537Z,21.67
2018-03-19T12:05:02.502Z,19.63
2018-03-19T12:07:30.598Z,20.00
2018-03-19T12:09:58.683Z,21.73
2018-03-19T12:12:26.859Z,23.10
2018-03-19T12:14:55.038Z,20.17
2018-03-19T12:17:23.156Z,19.20
2018-03-19T12:19:52.414Z,19.43
2018-03-19T12:22:20.486Z,21.62
2018-03-19T12:24:48.555Z,19.20
2018-03-19T12:27:16.619Z,18.33
2018-03-19T12:29:44.759Z,19.65
2018-03-19T12:32:13.606Z,19.57
2018-03-19T12:34:41.678Z,20.53
2018-03-19T12:37:09.756Z,17.43
2018-03-19T12:39:37.859Z,23.10
2018-03-19T12:42:06.029Z,20.73
2018-03-19T12:44:34.098Z,22.30
2018-03-19T12:47:03.791Z,21.22
2018-03-19T12:49:33.012Z,19.33
2018-03-19T12:52:01.094Z,22.27
2018-03-19T12:54:29.182Z,21.00
2018-03-19T12:56:57.266Z,21.87
2018-03-19T12:59:25.338Z,20.00
2018-03-19T13:01:54.186Z,20.00
2018-03-19T13:04:22.257Z,21.77
2018-03-19T13:06:50.333Z,19.70
2018-03-19T13:09:18.448Z,18.48
2018-03-19T13:11:46.522Z,21.90
2018-03-19T13:14:14.606Z,19.70
2018-03-19T13:16:42.771Z,20.80
2018-03-19T13:19:10.830Z,17.60
2018-03-19T13:21:38.911Z,18.57
2018-03-19T13:24:06.982Z,22.80
2018-03-19T13:26:35.077Z,18.30
2018-03-19T13:29:03.387Z,21.42
2018-03-19T13:31:31.461Z,19.17
2018-03-19T13:33:59.621Z,19.10
2018-03-19T13:36:27.711Z,22.00
2018-03-19T13:38:57.288Z,20.20
2018-03-19T13:41:25.387Z,22.73
2018-03-19T13:43:53.464Z,19.40
2018-03-19T13:46:21.589Z,21.40
2018-03-19T13:48:49.606Z,20.58
2018-03-19T13:51:17.691Z,27.10
2018-03-19T13:53:45.870Z,20.00
2018-03-19T13:56:13.962Z,22.50
2018-03-19T13:58:42.829Z,22.90
2018-03-19T14:01:10.899Z,19.10
2018-03-19T14:03:38.954Z,22.20
2018-03-19T14:06:07.034Z,20.10
2018-03-19T14:08:35.129Z,21.13
2018-03-19T14:11:03.938Z,20.40
2018-03-19T14:13:32.001Z,24.17
2018-03-19T14:16:00.165Z,24.20
2018-03-19T14:18:28.217Z,22.07
2018-03-19T14:20:56.314Z,21.03
2018-03-19T14:23:24.589Z,22.27
2018-03-19T14:25:52.928Z,21.20
2018-03-19T14:28:21.083Z,22.08
2018-03-19T14:30:49.179Z,25.33
2018-03-19T14:33:17.244Z,25.00
2018-03-19T14:35:45.439Z,21.80
2018-03-19T14:38:14.395Z,23.50
2018-03-19T14:40:42.534Z,21.60
2018-03-19T14:43:11.410Z,20.53
2018-03-19T14:45:40.311Z,19.07
2018-03-19T14:48:10.048Z,21.07
2018-03-19T14:50:38.215Z,22.47
2018-03-19T14:53:06.300Z,22.97
2018-03-19T14:55:34.465Z,21.67
2018-03-19T14:58:02.590Z,22.50
2018-03-19T15:00:30.651Z,19.60
2018-03-19T15:02:58.730Z,20.42
2018-03-19T15:05:26.900Z,20.87
2018-03-19T15:07:55.013Z,21.17
2018-03-19T15:10:23.208Z,25.97
2018-03-19T15:12:52.525Z,23.90
2018-03-19T15:15:20.674Z,23.97
2018-03-19T15:17:48.755Z,20.03
2018-03-19T15:20:16.927Z,20.60
2018-03-19T15:22:45.015Z,19.83
2018-03-19T15:25:13.099Z,21.33
2018-03-19T15:27:41.262Z,20.77
2018-03-19T15:30:09.395Z,22.75
2018-03-19T15:32:37.514Z,22.67
2018-03-19T15:35:05.602Z,20.37
2018-03-19T15:37:34.838Z,20.87
2018-03-19T15:40:04.912Z,21.33
2018-03-19T15:42:33.094Z,21.63
2018-03-19T15:45:01.267Z,22.08
2018-03-19T15:47:29.331Z,20.37
2018-03-19T15:49:57.433Z,21.50
2018-03-19T15:52:25.571Z,21.20
2018-03-19T15:54:53.640Z,20.10
2018-03-19T15:57:21.762Z,21.12
2018-03-19T15:59:49.842Z,20.95
2018-03-19T16:02:17.914Z,21.13
2018-03-19T16:04:46.033Z,23.20
2018-03-19T16:07:14.880Z,21.05
2018-03-19T16:09:43.117Z,24.00
2018-03-19T16:12:11.242Z,22.30
2018-03-19T16:14:39.317Z,21.15
2018-03-19T16:17:07.468Z,24.63
2018-03-19T16:19:35.535Z,22.30
2018-03-19T16:22:03.649Z,21.40
2018-03-19T16:24:31.710Z,23.60
2018-03-19T16:26:59.963Z,20.37
2018-03-19T16:29:28.382Z,21.17
2018-03-19T16:31:56.446Z,21.85
2018-03-19T16:34:24.514Z,20.60
2018-03-19T16:36:52.675Z,21.00
2018-03-19T16:39:20.731Z,22.70
2018-03-19T16:41:49.699Z,23.62
2018-03-19T16:44:17.937Z,21.73
2018-03-19T16:46:46.051Z,23.17
2018-03-19T16:49:14.217Z,23.60
2018-03-19T16:51:42.609Z,18.20
2018-03-19T16:54:10.677Z,21.98
2018-03-19T16:56:38.746Z,22.67
2018-03-19T16:59:06.842Z,23.10
2018-03-19T17:01:36.613Z,23.85
2018-03-19T17:04:04.773Z,24.00
2018-03-19T17:06:33.788Z,21.33
2018-03-19T17:09:01.886Z,22.40
2018-03-19T17:11:29.983Z,22.77
2018-03-19T17:13:58.229Z,20.52
2018-03-19T17:16:26.288Z,21.43
2018-03-19T17:18:55.165Z,23.33
2018-03-19T17:21:24.063Z,20.33
2018-03-19T17:23:53.114Z,22.03
2018-03-19T17:26:21.194Z,24.35
2018-03-19T17:28:49.347Z,20.00
2018-03-19T17:31:17.537Z,20.20
2018-03-19T17:33:45.638Z,22.98
2018-03-19T17:36:13.724Z,22.73
2018-03-19T17:38:41.782Z,22.93
2018-03-19T17:41:09.860Z,24.47
2018-03-19T17:43:38.058Z,22.67
2018-03-19T17:46:07.117Z,20.42
2018-03-19T17:48:37.081Z,23.40
2018-03-19T17:51:07.353Z,24.60
2018-03-19T17:53:36.497Z,21.98
2018-03-19T17:56:04.637Z,25.45
2018-03-19T17:58:32.717Z,23.70
2018-03-19T18:01:00.822Z,23.90
2018-03-19T18:03:28.906Z,21.50
2018-03-19T18:05:57.024Z,25.37
2018-03-19T18:08:25.121Z,22.37
2018-03-19T18:10:53.194Z,24.70
2018-03-19T18:13:21.363Z,23.85
2018-03-19T18:15:50.194Z,27.20
2018-03-19T18:18:18.370Z,25.53
2018-03-19T18:20:46.519Z,23.80
2018-03-19T18:23:14.587Z,21.70
2018-03-19T18:25:42.767Z,22.63
2018-03-19T18:28:11.624Z,25.47
2018-03-19T18:30:40.443Z,24.80
2018-03-19T18:33:09.278Z,25.97
2018-03-19T18:35:37.491Z,28.40
2018-03-19T18:38:07.475Z,27.97
2018-03-19T18:40:35.662Z,24.73
2018-03-19T18:43:03.767Z,26.00
2018-03-19T18:45:31.921Z,25.80
2018-03-19T18:48:00.099Z,24.37
2018-03-19T18:50:28.212Z,26.15
2018-03-19T18:52:56.351Z,25.33
2018-03-19T18:55:24.538Z,25.13
2018-03-19T18:57:52.750Z,24.83
2018-03-19T19:00:20.957Z,25.50
2018-03-19T19:02:49.044Z,25.33
2018-03-19T19:05:17.158Z,21.25
2018-03-19T19:07:45.571Z,27.93
2018-03-19T19:10:14.458Z,25.67
2018-03-19T19:12:42.518Z,23.10
2018-03-19T19:15:10.682Z,26.33
2018-03-19T19:17:39.418Z,22.20
2018-03-19T19:20:07.700Z,22.48
2018-03-19T19:22:36.601Z,23.17
2018-03-19T19:25:04.768Z,24.33
2018-03-19T19:27:33.605Z,24.10
2018-03-19T19:30:01.694Z,25.00
2018-03-19T19:32:29.788Z,22.30
2018-03-19T19:34:57.860Z,23.52
2018-03-19T19:37:26.018Z,32.35
2018-03-19T19:39:54.081Z,27.20
2018-03-19T19:42:22.246Z,25.30
2018-03-19T19:44:50.360Z,22.33
2018-03-19T19:47:18.426Z,22.85
2018-03-19T19:49:46.538Z,25.20
2018-03-19T19:52:14.721Z,24.77
2018-03-19T19:54:42.853Z,22.87
2018-03-19T19:57:11.022Z,20.70
2018-03-19T19:59:39.329Z,21.63
2018-03-19T20:02:08.325Z,22.52
2018-03-19T20:04:36.424Z,23.43
2018-03-19T20:07:04.515Z,22.50
2018-03-19T20:09:33.377Z,23.33
2018-03-19T20:12:01.454Z,24.95
2018-03-19T20:14:29.531Z,23.17
2018-03-19T20:16:57.593Z,23.52
2018-03-19T20:19:25.707Z,24.93
2018-03-19T20:21:53.854Z,27.13
2018-03-19T20:24:21.927Z,23.20
2018-03-19T20:26:50.079Z,24.00
2018-03-19T20:29:18.253Z,26.60
2018-03-19T20:31:46.439Z,25.67
2018-03-19T20:34:14.510Z,25.30
2018-03-19T20:36:42.710Z,24.80
2018-03-19T20:39:10.798Z,23.67
2018-03-19T20:41:38.859Z,25.77
2018-03-19T20:44:07.081Z,22.62
2018-03-19T20:46:35.231Z,29.97
2018-03-19T20:49:03.375Z,40.97
2018-03-19T20:51:32.276Z,21.33
2018-03-19T20:54:00.386Z,23.30
2018-03-19T20:56:28.557Z,26.15
2018-03-19T20:58:56.737Z,26.57
2018-03-19T21:01:24.959Z,23.63
2018-03-19T21:03:53.941Z,27.03
2018-03-19T21:06:22.099Z,24.80
2018-03-19T21:08:50.232Z,24.07
2018-03-19T21:11:18.352Z,27.33
2018-03-19T21:13:46.605Z,25.27
2018-03-19T21:16:14.734Z,24.02
2018-03-19T21:18:42.935Z,22.87
2018-03-19T21:21:11.809Z,24.30
2018-03-19T21:23:40.817Z,25.10
2018-03-19T21:26:10.170Z,26.87
2018-03-19T21:28:39.700Z,24.70
2018-03-19T21:31:07.966Z,28.47
2018-03-19T21:33:36.093Z,26.47
2018-03-19T21:36:04.986Z,24.95
2018-03-19T21:38:33.830Z,20.93
2018-03-19T21:41:01.926Z,22.85
2018-03-19T21:43:30.051Z,24.53
2018-03-19T21:45:58.878Z,25.27
2018-03-19T21:48:27.309Z,19.07
2018-03-19T21:50:56.173Z,22.70
2018-03-19T21:53:24.332Z,21.10
2018-03-19T21:55:52.464Z,19.27
2018-03-19T21:58:21.316Z,22.83
2018-03-19T22:00:49.374Z,20.33
2018-03-19T22:03:17.794Z,20.73
2018-03-19T22:05:47.545Z,20.90
2018-03-19T22:08:15.678Z,22.40
2018-03-19T22:10:46.072Z,22.33
2018-03-19T22:13:14.965Z,20.53
2018-03-19T22:15:43.201Z,20.43
2018-03-19T22:18:11.375Z,19.23
2018-03-19T22:20:40.826Z,24.67
2018-03-19T22:23:10.107Z,24.48
2018-03-19T22:25:38.438Z,22.77
2018-03-19T22:28:06.559Z,25.35
2018-03-19T22:30:35.475Z,23.47
2018-03-19T22:33:04.463Z,26.57
2018-03-19T22:35:32.683Z,27.90
2018-03-19T22:38:00.874Z,24.57
2018-03-19T22:40:28.976Z,28.20
2018-03-19T22:42:57.194Z,26.57
2018-03-19T22:45:25.322Z,30.00
2018-03-19T22:47:53.470Z,22.50
2018-03-19T22:50:21.702Z,21.60
2018-03-19T22:52:50.232Z,21.20
2018-03-19T22:55:18.526Z,20.55
2018-03-19T22:57:46.904Z,21.27
2018-03-19T23:00:15.074Z,21.60
2018-03-19T23:02:43.445Z,21.03
2018-03-19T23:05:26.462Z,21.47
2018-03-19T23:07:54.642Z,19.27
2018-03-19T23:10:22.727Z,23.17
2018-03-19T23:12:51.150Z,20.30
2018-03-19T23:15:19.988Z,20.70
2018-03-19T23:17:48.161Z,18.27
2018-03-19T23:20:17.061Z,20.27
2018-03-19T23:22:45.183Z,18.02
2018-03-19T23:25:13.378Z,18.20
2018-03-19T23:27:43.072Z,20.03
2018-03-19T23:30:11.158Z,17.85
2018-03-19T23:32:39.563Z,19.83
2018-03-19T23:35:08.546Z,20.12
2018-03-19T23:37:36.852Z,21.10
2018-03-19T23:40:06.459Z,17.37
2018-03-19T23:42:35.314Z,19.10
2018-03-19T23:45:03.432Z,18.65
2018-03-19T23:47:31.623Z,17.90
2018-03-19T23:50:00.558Z,18.63
2018-03-19T23:52:28.756Z,21.60
2018-03-19T23:54:56.861Z,19.08
2018-03-19T23:57:25.751Z,17.65
2018-03-19T23:59:54.057Z,18.30
